createdAt,value
2019-04-20T00:00:02.702Z,0.00
2019-04-20T00:00:58.539Z,0.00
2019-04-20T00:02:03.562Z,0.00
2019-04-20T00:02:59.528Z,0.00
2019-04-20T00:03:56.139Z,0.00
2019-04-20T00:04:55.133Z,0.00
2019-04-20T00:07:46.551Z,0.00
2019-04-20T00:08:51.251Z,0.00
2019-04-20T00:09:56.595Z,0.00
2019-04-20T00:11:02.592Z,0.00
2019-04-20T00:12:00.132Z,0.00
2019-04-20T00:13:03.813Z,0.00
2019-04-20T00:13:59.341Z,0.00
2019-04-20T00:14:56.586Z,0.00
2019-04-20T00:15:49.343Z,0.00
2019-04-20T00:16:53.047Z,0.00
2019-04-20T00:17:58.393Z,0.00
2019-04-20T00:18:54.832Z,0.00
2019-04-20T00:19:53.828Z,0.00
2019-04-20T00:20:51.362Z,0.00
2019-04-20T00:21:59.838Z,0.00
2019-04-20T00:22:54.085Z,0.00
2019-04-20T00:23:51.374Z,0.00
2019-04-20T00:24:55.364Z,0.00
2019-04-20T00:26:00.495Z,0.00
2019-04-20T00:27:15.973Z,0.00
2019-04-20T00:29:25.357Z,0.00
2019-04-20T00:29:36.722Z,0.00
2019-04-20T00:30:39.203Z,0.00
2019-04-20T00:31:29.632Z,0.00
2019-04-20T00:33:56.162Z,0.00
2019-04-20T00:34:26.404Z,0.00
2019-04-20T00:35:18.838Z,0.00
2019-04-20T00:36:18.580Z,0.00
2019-04-20T00:37:21.161Z,0.00
2019-04-20T00:38:21.153Z,0.00
2019-04-20T00:40:37.267Z,0.00
2019-04-20T00:40:43.437Z,0.00
2019-04-20T00:41:49.019Z,0.00
2019-04-20T00:42:48.834Z,0.00
2019-04-20T00:43:47.156Z,0.00
2019-04-20T00:44:44.681Z,0.00
2019-04-20T00:45:47.668Z,0.00
2019-04-20T00:46:56.824Z,0.00
2019-04-20T00:47:54.615Z,0.00
2019-04-20T00:48:50.476Z,0.00
2019-04-20T00:49:52.291Z,0.00
2019-04-20T00:51:00.911Z,0.00
2019-04-20T00:52:11.217Z,0.00
2019-04-20T00:52:54.240Z,0.00
2019-04-20T00:53:47.715Z,0.00
2019-04-20T00:56:09.867Z,0.00
2019-04-20T00:57:20.484Z,0.00
2019-04-20T00:58:23.611Z,0.00
2019-04-20T00:59:20.074Z,0.00
2019-04-20T01:00:26.819Z,0.00
2019-04-20T01:01:31.184Z,0.00
2019-04-20T01:02:20.754Z,0.00
2019-04-20T01:03:30.537Z,0.00
2019-04-20T01:04:25.484Z,0.00
2019-04-20T01:05:23.137Z,0.00
2019-04-20T01:06:28.914Z,0.00
2019-04-20T01:08:38.021Z,0.00
2019-04-20T01:09:13.986Z,0.00
2019-04-20T01:11:39.470Z,0.00
2019-04-20T01:12:12.658Z,0.00
2019-04-20T01:13:19.826Z,0.00
2019-04-20T01:14:12.302Z,0.00
2019-04-20T01:15:23.033Z,0.00
2019-04-20T01:16:22.505Z,0.00
2019-04-20T01:17:11.927Z,0.00
2019-04-20T01:18:13.833Z,0.00
2019-04-20T01:19:11.570Z,0.00
2019-04-20T01:21:38.423Z,0.00
2019-04-20T01:22:14.376Z,0.00
2019-04-20T01:23:15.261Z,0.00
2019-04-20T01:24:20.060Z,0.00
2019-04-20T01:25:18.250Z,0.00
2019-04-20T01:26:15.570Z,0.00
2019-04-20T01:27:25.868Z,0.00
2019-04-20T01:28:31.061Z,0.00
2019-04-20T01:29:21.843Z,0.00
2019-04-20T01:30:21.961Z,0.00
2019-04-20T01:31:18.618Z,0.00
2019-04-20T01:32:27.725Z,0.00
2019-04-20T01:33:25.890Z,0.00
2019-04-20T01:34:27.873Z,0.00
2019-04-20T01:42:34.129Z,0.00
2019-04-20T01:43:33.708Z,0.00
2019-04-20T01:44:35.871Z,0.00
2019-04-20T01:45:35.662Z,0.00
2019-04-20T01:46:32.196Z,0.00
2019-04-20T01:47:38.869Z,0.00
2019-04-20T01:48:38.682Z,0.00
2019-04-20T01:49:40.260Z,0.00
2019-04-20T01:50:36.252Z,0.00
2019-04-20T01:51:42.917Z,0.00
2019-04-20T01:52:44.039Z,0.00
2019-04-20T01:54:21.253Z,0.00
2019-04-20T01:58:50.615Z,0.00
2019-04-20T02:00:21.067Z,0.00
2019-04-20T02:00:37.275Z,0.00
2019-04-20T02:09:03.191Z,0.00
2019-04-20T02:11:32.722Z,0.00
2019-04-20T02:12:31.150Z,0.00
2019-04-20T02:13:40.160Z,0.00
2019-04-20T02:14:35.884Z,0.00
2019-04-20T02:19:52.668Z,0.00
2019-04-20T02:20:58.086Z,0.00
2019-04-20T02:21:55.412Z,0.00
2019-04-20T02:24:12.534Z,0.00
2019-04-20T02:24:47.030Z,0.00
2019-04-20T02:25:35.676Z,0.00
2019-04-20T02:26:36.662Z,0.00
2019-04-20T02:30:04.455Z,0.00
2019-04-20T02:31:59.439Z,0.00
2019-04-20T02:33:27.479Z,0.00
2019-04-20T02:34:23.816Z,0.00
2019-04-20T02:35:18.289Z,0.00
2019-04-20T02:36:33.687Z,0.00
2019-04-20T02:38:36.510Z,0.00
2019-04-20T02:39:32.943Z,0.00
2019-04-20T02:40:19.196Z,0.00
2019-04-20T02:41:21.466Z,0.00
2019-04-20T02:44:23.940Z,0.00
2019-04-20T02:45:27.695Z,0.00
2019-04-20T02:46:26.535Z,0.00
2019-04-20T02:47:21.552Z,0.00
2019-04-20T02:48:15.904Z,0.00
2019-04-20T02:51:22.915Z,0.00
2019-04-20T02:52:50.596Z,0.00
2019-04-20T02:55:26.890Z,0.00
2019-04-20T02:56:44.625Z,0.00
2019-04-20T02:58:34.706Z,0.00
2019-04-20T02:59:53.348Z,0.00
2019-04-20T03:00:24.054Z,0.00
2019-04-20T03:01:20.483Z,0.00
2019-04-20T03:02:17.319Z,0.00
2019-04-20T03:03:11.051Z,0.00
2019-04-20T03:04:03.446Z,0.00
2019-04-20T03:05:12.192Z,0.00
2019-04-20T03:06:14.773Z,0.00
2019-04-20T03:07:15.270Z,0.00
2019-04-20T03:08:17.639Z,0.00
2019-04-20T03:09:24.308Z,0.00
2019-04-20T03:10:17.963Z,0.00
2019-04-20T03:11:21.097Z,0.00
2019-04-20T03:12:25.714Z,0.00
2019-04-20T03:13:19.809Z,0.00
2019-04-20T03:14:20.053Z,0.00
2019-04-20T03:15:22.599Z,0.00
2019-04-20T03:16:22.130Z,0.00
2019-04-20T03:17:26.057Z,0.00
2019-04-20T03:18:21.349Z,0.00
2019-04-20T03:19:17.357Z,0.00
2019-04-20T03:20:24.191Z,0.00
2019-04-20T03:21:24.744Z,0.00
2019-04-20T03:22:21.346Z,0.00
2019-04-20T03:23:29.717Z,0.00
2019-04-20T03:25:30.061Z,0.00
2019-04-20T03:26:27.751Z,0.00
2019-04-20T03:27:16.137Z,0.00
2019-04-20T03:28:18.229Z,0.00
2019-04-20T03:29:12.801Z,0.00
2019-04-20T03:33:35.123Z,0.00
2019-04-20T03:34:51.544Z,0.00
2019-04-20T03:35:25.051Z,0.00
2019-04-20T03:36:25.200Z,0.00
2019-04-20T03:37:26.952Z,0.00
2019-04-20T03:38:23.092Z,0.00
2019-04-20T03:39:17.640Z,0.00
2019-04-20T03:40:12.558Z,0.00
2019-04-20T03:41:18.308Z,0.00
2019-04-20T03:42:00.441Z,0.00
2019-04-20T03:42:59.094Z,0.00
2019-04-20T03:44:04.108Z,0.00
2019-04-20T03:45:06.088Z,0.00
2019-04-20T03:46:05.583Z,0.00
2019-04-20T03:47:04.566Z,0.00
2019-04-20T03:48:16.092Z,0.00
2019-04-20T03:50:22.440Z,0.00
2019-04-20T03:51:26.001Z,0.00
2019-04-20T03:52:24.159Z,0.00
2019-04-20T03:53:19.542Z,0.00
2019-04-20T03:54:13.790Z,0.00
2019-04-20T03:55:16.118Z,0.00
2019-04-20T03:56:22.774Z,0.00
2019-04-20T03:57:22.373Z,0.00
2019-04-20T03:58:18.528Z,0.00
2019-04-20T03:59:11.318Z,0.00
2019-04-20T04:00:16.284Z,0.00
2019-04-20T04:01:19.882Z,0.00
2019-04-20T04:02:29.715Z,0.00
2019-04-20T04:03:29.300Z,0.00
2019-04-20T04:04:21.497Z,5.62
2019-04-20T04:05:17.690Z,5.62
2019-04-20T04:06:11.814Z,5.62
2019-04-20T04:07:01.852Z,5.62
2019-04-20T04:08:10.557Z,5.62
2019-04-20T04:09:12.223Z,5.62
2019-04-20T04:10:14.002Z,11.25
2019-04-20T04:11:16.235Z,11.25
2019-04-20T04:12:08.911Z,11.25
2019-04-20T04:12:58.940Z,11.25
2019-04-20T04:13:56.714Z,11.25
2019-04-20T04:14:57.930Z,16.88
2019-04-20T04:16:03.304Z,16.88
2019-04-20T04:17:01.271Z,16.88
2019-04-20T04:18:04.533Z,16.88
2019-04-20T04:19:06.155Z,22.50
2019-04-20T04:20:05.076Z,22.50
2019-04-20T04:21:03.901Z,28.12
2019-04-20T04:22:12.268Z,28.12
2019-04-20T04:24:10.696Z,33.75
2019-04-20T04:25:14.916Z,33.75
2019-04-20T04:26:18.731Z,39.38
2019-04-20T04:27:16.208Z,39.38
2019-04-20T04:28:14.253Z,45.00
2019-04-20T04:29:21.384Z,45.00
2019-04-20T04:30:14.445Z,50.62
2019-04-20T04:31:16.401Z,56.25
2019-04-20T04:32:37.553Z,56.25
2019-04-20T04:33:44.555Z,61.88
2019-04-20T04:34:17.393Z,67.50
2019-04-20T04:35:15.847Z,73.12
2019-04-20T04:36:13.823Z,73.12
2019-04-20T04:37:17.238Z,78.75
2019-04-20T04:38:23.674Z,78.75
2019-04-20T04:39:21.208Z,90.00
2019-04-20T04:40:27.813Z,146.25
2019-04-20T04:41:32.316Z,264.38
2019-04-20T04:42:22.318Z,376.88
2019-04-20T04:43:20.554Z,416.25
2019-04-20T04:44:11.229Z,461.25
2019-04-20T04:45:04.885Z,506.25
2019-04-20T04:45:59.529Z,545.62
2019-04-20T04:47:02.775Z,585.00
2019-04-20T04:47:59.587Z,618.75
2019-04-20T04:49:06.829Z,658.12
2019-04-20T04:50:07.458Z,675.00
2019-04-20T04:51:03.407Z,708.75
2019-04-20T04:52:05.623Z,753.75
2019-04-20T04:53:07.344Z,804.38
2019-04-20T04:54:10.185Z,855.00
2019-04-20T04:55:16.168Z,883.12
2019-04-20T04:56:05.806Z,911.25
2019-04-20T04:56:58.675Z,956.25
2019-04-20T04:57:56.422Z,984.38
2019-04-20T04:58:56.407Z,1006.88
2019-04-20T04:59:57.316Z,1068.75
2019-04-20T05:01:01.360Z,1113.75
2019-04-20T05:01:59.780Z,1141.88
2019-04-20T05:03:01.112Z,1192.50
2019-04-20T05:04:22.751Z,1220.62
2019-04-20T05:05:17.398Z,1254.38
2019-04-20T05:06:12.405Z,1293.75
2019-04-20T05:07:11.693Z,1316.25
2019-04-20T05:08:07.578Z,1372.50
2019-04-20T05:09:03.171Z,1406.25
2019-04-20T05:09:59.107Z,1456.88
2019-04-20T05:10:56.364Z,1479.38
2019-04-20T05:12:03.973Z,1535.62
2019-04-20T05:12:58.837Z,1546.88
2019-04-20T05:14:02.056Z,1597.50
2019-04-20T05:15:07.582Z,1620.00
2019-04-20T05:16:14.698Z,1417.50
2019-04-20T05:17:12.680Z,1406.25
2019-04-20T05:18:20.852Z,1625.62
2019-04-20T05:19:19.354Z,1687.50
2019-04-20T05:20:18.136Z,1614.38
2019-04-20T05:21:15.415Z,1597.50
2019-04-20T05:22:19.362Z,1237.50
2019-04-20T05:23:12.977Z,1102.50
2019-04-20T05:24:15.324Z,1344.38
2019-04-20T05:25:20.373Z,1366.88
2019-04-20T05:26:19.671Z,1445.62
2019-04-20T05:27:19.085Z,1518.75
2019-04-20T05:28:13.049Z,1648.12
2019-04-20T05:29:07.958Z,1901.25
2019-04-20T05:29:59.199Z,2092.50
2019-04-20T05:30:59.917Z,2182.50
2019-04-20T05:32:07.369Z,2221.88
2019-04-20T05:33:06.046Z,2244.38
2019-04-20T05:34:20.169Z,2311.88
2019-04-20T05:35:23.767Z,2278.12
2019-04-20T05:36:19.325Z,2311.88
2019-04-20T05:37:27.445Z,2328.75
2019-04-20T05:38:28.260Z,2109.38
2019-04-20T05:39:22.507Z,1822.50
2019-04-20T05:40:22.713Z,1980.00
2019-04-20T05:41:20.160Z,2430.00
2019-04-20T05:42:24.584Z,2278.12
2019-04-20T05:43:17.943Z,1771.88
2019-04-20T05:44:12.689Z,1462.50
2019-04-20T05:45:16.714Z,1558.12
2019-04-20T05:46:21.193Z,1676.25
2019-04-20T05:47:19.555Z,1850.62
2019-04-20T05:48:11.924Z,2340.00
2019-04-20T05:49:23.593Z,2323.12
2019-04-20T05:50:18.548Z,1845.00
2019-04-20T05:51:25.521Z,1215.00
2019-04-20T05:52:31.734Z,883.12
2019-04-20T05:53:20.250Z,821.25
2019-04-20T05:54:18.971Z,860.62
2019-04-20T05:55:21.006Z,843.75
2019-04-20T05:56:17.295Z,787.50
2019-04-20T05:57:25.430Z,826.88
2019-04-20T05:58:24.541Z,883.12
2019-04-20T05:59:14.974Z,894.38
2019-04-20T06:00:20.220Z,888.75
2019-04-20T06:01:22.942Z,911.25
2019-04-20T06:02:26.237Z,973.12
2019-04-20T06:04:17.272Z,1046.25
2019-04-20T06:05:24.068Z,1029.38
2019-04-20T06:06:16.825Z,961.88
2019-04-20T06:07:21.576Z,945.00
2019-04-20T06:08:30.366Z,978.75
2019-04-20T06:09:22.750Z,990.00
2019-04-20T06:10:20.819Z,967.50
2019-04-20T06:11:21.706Z,922.50
2019-04-20T06:12:19.899Z,911.25
2019-04-20T06:13:15.039Z,939.38
2019-04-20T06:14:09.099Z,871.88
2019-04-20T06:15:12.734Z,922.50
2019-04-20T06:16:15.743Z,1130.62
2019-04-20T06:17:21.073Z,1366.88
2019-04-20T06:18:13.272Z,1147.50
2019-04-20T06:19:29.817Z,787.50
2019-04-20T06:20:19.421Z,680.62
2019-04-20T06:21:27.671Z,641.25
2019-04-20T06:22:27.218Z,697.50
2019-04-20T06:23:24.597Z,855.00
2019-04-20T06:24:26.765Z,1164.38
2019-04-20T06:26:40.152Z,1265.62
2019-04-20T06:27:16.418Z,1051.88
2019-04-20T06:28:15.649Z,1113.75
2019-04-20T06:29:16.335Z,1524.38
2019-04-20T06:30:13.768Z,2058.75
2019-04-20T06:31:19.131Z,2148.75
2019-04-20T06:32:27.165Z,1895.62
2019-04-20T06:33:24.538Z,1434.38
2019-04-20T06:35:33.577Z,1372.50
2019-04-20T06:36:38.631Z,1473.75
2019-04-20T06:37:18.439Z,1591.88
2019-04-20T06:38:35.318Z,1586.25
2019-04-20T06:39:19.983Z,1608.75
2019-04-20T06:40:36.463Z,1614.38
2019-04-20T06:41:31.801Z,1614.38
2019-04-20T06:42:33.623Z,1591.88
2019-04-20T06:43:19.238Z,1411.88
2019-04-20T06:44:26.727Z,1445.62
2019-04-20T06:45:22.631Z,1625.62
2019-04-20T06:46:33.432Z,1620.00
2019-04-20T06:47:24.651Z,1636.88
2019-04-20T06:48:21.468Z,1676.25
2019-04-20T06:49:27.450Z,1704.38
2019-04-20T06:50:18.487Z,1743.75
2019-04-20T06:51:22.358Z,1743.75
2019-04-20T06:52:26.157Z,1738.12
2019-04-20T06:53:28.533Z,1771.88
2019-04-20T06:54:10.370Z,1833.75
2019-04-20T06:55:15.716Z,1884.38
2019-04-20T06:56:25.192Z,1980.00
2019-04-20T06:57:22.094Z,2098.12
2019-04-20T06:58:33.715Z,2176.88
2019-04-20T06:59:29.042Z,2295.00
2019-04-20T07:00:42.034Z,2480.62
2019-04-20T07:01:23.574Z,2615.62
2019-04-20T07:02:21.879Z,2677.50
2019-04-20T07:03:30.937Z,2840.62
2019-04-20T07:05:18.954Z,3358.12
2019-04-20T07:06:34.899Z,3656.25
2019-04-20T07:07:18.469Z,4353.75
2019-04-20T07:08:33.079Z,5073.75
2019-04-20T07:09:27.188Z,5208.75
2019-04-20T07:11:18.813Z,3667.50
2019-04-20T07:12:17.399Z,3043.12
2019-04-20T07:13:13.116Z,2632.50
2019-04-20T07:14:02.904Z,2283.75
2019-04-20T07:15:17.800Z,2002.50
2019-04-20T07:16:21.399Z,1749.38
2019-04-20T07:17:29.727Z,1563.75
2019-04-20T07:18:17.189Z,1456.88
2019-04-20T07:19:18.977Z,1389.38
2019-04-20T07:20:18.426Z,1333.12
2019-04-20T07:21:28.769Z,1260.00
2019-04-20T07:22:33.604Z,1192.50
2019-04-20T07:23:26.608Z,1096.88
2019-04-20T07:24:25.214Z,1051.88
2019-04-20T07:25:20.257Z,1063.12
2019-04-20T07:26:25.454Z,1035.00
2019-04-20T07:27:19.776Z,1012.50
2019-04-20T07:28:24.254Z,990.00
2019-04-20T07:29:24.036Z,967.50
2019-04-20T07:30:19.454Z,956.25
2019-04-20T07:31:18.816Z,956.25
2019-04-20T07:32:10.299Z,961.88
2019-04-20T07:33:24.381Z,961.88
2019-04-20T07:34:23.405Z,956.25
2019-04-20T07:35:22.101Z,956.25
2019-04-20T07:36:24.490Z,939.38
2019-04-20T07:37:51.378Z,939.38
2019-04-20T07:39:26.437Z,933.75
2019-04-20T07:40:28.703Z,939.38
2019-04-20T07:41:25.946Z,911.25
2019-04-20T07:42:24.263Z,945.00
2019-04-20T07:43:14.683Z,956.25
2019-04-20T07:44:29.903Z,956.25
2019-04-20T07:46:34.604Z,916.88
2019-04-20T07:47:28.187Z,894.38
2019-04-20T07:48:31.078Z,922.50
2019-04-20T07:49:18.156Z,911.25
2019-04-20T07:50:13.012Z,905.62
2019-04-20T07:51:06.614Z,928.12
2019-04-20T07:51:57.663Z,916.88
2019-04-20T07:53:14.662Z,945.00
2019-04-20T07:54:24.751Z,939.38
2019-04-20T07:55:40.014Z,922.50
2019-04-20T07:56:17.738Z,916.88
2019-04-20T07:57:14.760Z,905.62
2019-04-20T07:58:10.132Z,888.75
2019-04-20T07:59:11.622Z,883.12
2019-04-20T08:00:21.413Z,871.88
2019-04-20T08:01:23.844Z,855.00
2019-04-20T08:02:23.536Z,821.25
2019-04-20T08:03:23.693Z,815.62
2019-04-20T08:04:17.451Z,832.50
2019-04-20T08:05:10.661Z,821.25
2019-04-20T08:06:05.362Z,810.00
2019-04-20T08:07:02.105Z,821.25
2019-04-20T08:08:14.899Z,815.62
2019-04-20T08:09:11.606Z,821.25
2019-04-20T08:10:02.884Z,821.25
2019-04-20T08:11:13.967Z,821.25
2019-04-20T08:12:22.149Z,815.62
2019-04-20T08:13:25.731Z,810.00
2019-04-20T08:14:24.121Z,798.75
2019-04-20T08:15:29.980Z,787.50
2019-04-20T08:16:23.132Z,770.62
2019-04-20T08:17:40.420Z,759.38
2019-04-20T08:18:21.270Z,753.75
2019-04-20T08:19:16.329Z,748.12
2019-04-20T08:20:17.317Z,748.12
2019-04-20T08:21:23.298Z,736.88
2019-04-20T08:22:19.809Z,731.25
2019-04-20T08:23:17.156Z,725.62
2019-04-20T08:24:17.710Z,714.38
2019-04-20T08:25:08.927Z,708.75
2019-04-20T08:26:06.657Z,691.88
2019-04-20T08:27:02.716Z,686.25
2019-04-20T08:27:57.317Z,675.00
2019-04-20T08:29:01.581Z,669.38
2019-04-20T08:30:12.228Z,669.38
2019-04-20T08:31:15.267Z,669.38
2019-04-20T08:32:17.943Z,663.75
2019-04-20T08:33:13.329Z,658.12
2019-04-20T08:34:35.355Z,652.50
2019-04-20T08:35:22.845Z,646.88
2019-04-20T08:36:16.847Z,641.25
2019-04-20T08:37:18.171Z,635.62
2019-04-20T08:40:24.335Z,607.50
2019-04-20T08:41:12.886Z,596.25
2019-04-20T08:42:16.388Z,590.62
2019-04-20T08:43:33.623Z,585.00
2019-04-20T08:44:41.373Z,579.38
2019-04-20T08:45:19.345Z,579.38
2019-04-20T08:46:13.501Z,579.38
2019-04-20T08:47:27.186Z,573.75
2019-04-20T08:48:23.176Z,573.75
2019-04-20T08:49:27.955Z,573.75
2019-04-20T08:50:19.817Z,579.38
2019-04-20T08:51:22.679Z,579.38
2019-04-20T08:52:41.407Z,579.38
2019-04-20T08:53:20.664Z,579.38
2019-04-20T08:54:19.277Z,579.38
2019-04-20T08:55:16.736Z,579.38
2019-04-20T08:56:12.736Z,573.75
2019-04-20T08:57:00.351Z,573.75
2019-04-20T08:57:57.136Z,573.75
2019-04-20T08:58:57.309Z,573.75
2019-04-20T08:59:56.043Z,562.50
2019-04-20T09:01:00.185Z,556.88
2019-04-20T09:01:58.066Z,551.25
2019-04-20T09:03:06.927Z,545.62
2019-04-20T09:04:06.596Z,540.00
2019-04-20T09:05:03.209Z,534.38
2019-04-20T09:06:05.553Z,534.38
2019-04-20T09:07:06.441Z,534.38
2019-04-20T09:08:06.869Z,534.38
2019-04-20T09:09:22.476Z,534.38
2019-04-20T09:10:25.637Z,540.00
2019-04-20T09:11:16.862Z,540.00
2019-04-20T09:12:18.015Z,534.38
2019-04-20T09:13:08.476Z,540.00
2019-04-20T09:14:00.169Z,540.00
2019-04-20T09:14:57.413Z,540.00
2019-04-20T09:15:55.638Z,540.00
2019-04-20T09:16:59.761Z,534.38
2019-04-20T09:18:00.982Z,534.38
2019-04-20T09:19:03.552Z,534.38
2019-04-20T09:20:06.312Z,528.75
2019-04-20T09:21:03.379Z,528.75
2019-04-20T09:22:03.218Z,528.75
2019-04-20T09:23:13.482Z,528.75
2019-04-20T09:24:22.787Z,523.12
2019-04-20T09:25:37.649Z,517.50
2019-04-20T09:26:16.073Z,511.88
2019-04-20T09:27:08.740Z,511.88
2019-04-20T09:28:07.425Z,511.88
2019-04-20T09:29:12.748Z,506.25
2019-04-20T09:30:13.644Z,500.62
2019-04-20T09:31:12.231Z,500.62
2019-04-20T09:32:18.964Z,500.62
2019-04-20T09:33:15.235Z,495.00
2019-04-20T09:34:13.331Z,489.38
2019-04-20T09:35:13.659Z,483.75
2019-04-20T09:36:10.340Z,483.75
2019-04-20T09:37:22.361Z,478.12
2019-04-20T09:38:10.908Z,478.12
2019-04-20T09:39:10.377Z,472.50
2019-04-20T09:40:16.258Z,461.25
2019-04-20T09:41:25.278Z,461.25
2019-04-20T09:42:01.481Z,461.25
2019-04-20T09:42:56.011Z,455.62
2019-04-20T09:43:55.871Z,455.62
2019-04-20T09:44:58.057Z,455.62
2019-04-20T09:46:02.036Z,450.00
2019-04-20T09:46:59.823Z,450.00
2019-04-20T09:47:58.369Z,450.00
2019-04-20T09:49:00.722Z,444.38
2019-04-20T09:50:09.002Z,438.75
2019-04-20T09:51:16.858Z,444.38
2019-04-20T09:52:12.200Z,438.75
2019-04-20T09:53:10.023Z,444.38
2019-04-20T09:54:17.451Z,450.00
2019-04-20T09:55:12.118Z,450.00
2019-04-20T09:56:18.131Z,450.00
2019-04-20T09:57:13.321Z,455.62
2019-04-20T09:58:09.756Z,450.00
2019-04-20T09:59:18.905Z,444.38
2019-04-20T10:00:13.382Z,444.38
2019-04-20T10:01:11.204Z,450.00
2019-04-20T10:02:06.633Z,450.00
2019-04-20T10:02:57.915Z,438.75
2019-04-20T10:03:54.805Z,438.75
2019-04-20T10:04:55.604Z,438.75
2019-04-20T10:05:55.934Z,433.12
2019-04-20T10:06:55.221Z,433.12
2019-04-20T10:07:59.874Z,438.75
2019-04-20T10:09:00.071Z,438.75
2019-04-20T10:09:57.869Z,438.75
2019-04-20T10:10:56.036Z,444.38
2019-04-20T10:11:55.740Z,438.75
2019-04-20T10:12:56.280Z,438.75
2019-04-20T10:13:54.692Z,444.38
2019-04-20T10:14:58.488Z,438.75
2019-04-20T10:15:57.713Z,438.75
2019-04-20T10:16:55.846Z,433.12
2019-04-20T10:17:56.026Z,438.75
2019-04-20T10:18:55.265Z,450.00
2019-04-20T10:19:55.718Z,450.00
2019-04-20T10:20:57.940Z,450.00
2019-04-20T10:21:57.279Z,450.00
2019-04-20T10:22:56.334Z,444.38
2019-04-20T10:23:56.597Z,438.75
2019-04-20T10:24:57.137Z,455.62
2019-04-20T10:25:54.592Z,444.38
2019-04-20T10:26:54.671Z,438.75
2019-04-20T10:27:55.830Z,433.12
2019-04-20T10:28:55.255Z,438.75
2019-04-20T10:29:55.624Z,438.75
2019-04-20T10:30:54.795Z,450.00
2019-04-20T10:31:58.724Z,450.00
2019-04-20T10:32:57.482Z,455.62
2019-04-20T10:33:55.716Z,455.62
2019-04-20T10:34:56.752Z,455.62
2019-04-20T10:35:54.521Z,461.25
2019-04-20T10:36:55.527Z,455.62
2019-04-20T10:37:55.665Z,455.62
2019-04-20T10:38:54.883Z,444.38
2019-04-20T10:39:56.573Z,438.75
2019-04-20T10:41:04.408Z,438.75
2019-04-20T10:42:00.489Z,444.38
2019-04-20T10:42:59.530Z,450.00
2019-04-20T10:43:54.514Z,450.00
2019-04-20T10:44:57.061Z,455.62
2019-04-20T10:45:55.475Z,455.62
2019-04-20T10:46:54.480Z,450.00
2019-04-20T10:47:54.971Z,450.00
2019-04-20T10:48:56.079Z,444.38
2019-04-20T10:49:56.513Z,444.38
2019-04-20T10:50:54.832Z,438.75
2019-04-20T10:51:55.803Z,433.12
2019-04-20T10:52:56.074Z,433.12
2019-04-20T10:53:56.141Z,433.12
2019-04-20T10:54:54.584Z,427.50
2019-04-20T10:55:55.613Z,427.50
2019-04-20T10:56:55.436Z,427.50
2019-04-20T10:57:55.596Z,427.50
2019-04-20T10:58:54.357Z,427.50
2019-04-20T10:59:55.388Z,427.50
2019-04-20T11:00:55.631Z,421.88
2019-04-20T11:01:54.351Z,416.25
2019-04-20T11:02:55.410Z,416.25
2019-04-20T11:03:54.549Z,416.25
2019-04-20T11:04:56.872Z,416.25
2019-04-20T11:05:54.402Z,410.62
2019-04-20T11:06:54.527Z,405.00
2019-04-20T11:07:56.730Z,405.00
2019-04-20T11:08:54.318Z,410.62
2019-04-20T11:10:04.371Z,405.00
2019-04-20T11:11:08.302Z,405.00
2019-04-20T11:11:56.636Z,399.38
2019-04-20T11:12:54.305Z,399.38
2019-04-20T11:13:55.359Z,399.38
2019-04-20T11:14:54.552Z,393.75
2019-04-20T11:15:56.597Z,393.75
2019-04-20T11:16:56.132Z,393.75
2019-04-20T11:17:55.369Z,388.12
2019-04-20T11:18:55.492Z,388.12
2019-04-20T11:19:55.008Z,393.75
2019-04-20T11:20:55.323Z,388.12
2019-04-20T11:21:54.395Z,393.75
2019-04-20T11:22:54.314Z,388.12
2019-04-20T11:23:54.301Z,388.12
2019-04-20T11:24:56.435Z,393.75
2019-04-20T11:25:54.220Z,388.12
2019-04-20T11:26:54.233Z,393.75
2019-04-20T11:27:54.422Z,399.38
2019-04-20T11:28:55.900Z,399.38
2019-04-20T11:29:54.191Z,388.12
2019-04-20T11:30:54.330Z,388.12
2019-04-20T11:31:56.496Z,382.50
2019-04-20T11:32:56.028Z,388.12
2019-04-20T11:33:54.242Z,388.12
2019-04-20T11:34:56.457Z,382.50
2019-04-20T11:35:55.152Z,376.88
2019-04-20T11:36:55.025Z,371.25
2019-04-20T11:37:55.358Z,371.25
2019-04-20T11:38:54.425Z,371.25
2019-04-20T11:39:55.107Z,376.88
2019-04-20T11:41:04.185Z,371.25
2019-04-20T11:41:56.111Z,371.25
2019-04-20T11:42:55.290Z,371.25
2019-04-20T11:43:54.096Z,365.62
2019-04-20T11:44:54.904Z,371.25
2019-04-20T11:45:54.483Z,371.25
2019-04-20T11:46:55.078Z,371.25
2019-04-20T11:47:54.084Z,371.25
2019-04-20T11:48:55.321Z,365.62
2019-04-20T11:49:55.395Z,365.62
2019-04-20T11:50:54.027Z,365.62
2019-04-20T11:51:55.332Z,365.62
2019-04-20T11:52:55.198Z,365.62
2019-04-20T11:53:54.388Z,371.25
2019-04-20T11:54:54.999Z,365.62
2019-04-20T11:55:54.219Z,371.25
2019-04-20T11:56:55.363Z,371.25
2019-04-20T11:57:54.214Z,371.25
2019-04-20T11:58:54.996Z,371.25
2019-04-20T11:59:55.001Z,371.25
2019-04-20T12:01:03.193Z,365.62
2019-04-20T12:02:01.051Z,371.25
2019-04-20T12:02:58.641Z,371.25
2019-04-20T12:04:04.147Z,376.88
2019-04-20T12:05:08.835Z,360.00
2019-04-20T12:05:59.397Z,354.38
2019-04-20T12:06:57.064Z,354.38
2019-04-20T12:07:55.436Z,360.00
2019-04-20T12:08:54.990Z,365.62
2019-04-20T12:09:58.545Z,371.25
2019-04-20T12:10:59.850Z,365.62
2019-04-20T12:12:08.243Z,360.00
2019-04-20T12:12:56.251Z,354.38
2019-04-20T12:13:54.913Z,343.12
2019-04-20T12:14:54.782Z,343.12
2019-04-20T12:15:53.994Z,343.12
2019-04-20T12:16:55.471Z,343.12
2019-04-20T12:17:53.938Z,343.12
2019-04-20T12:18:54.657Z,343.12
2019-04-20T12:19:53.856Z,337.50
2019-04-20T12:20:54.834Z,337.50
2019-04-20T12:21:53.944Z,337.50
2019-04-20T12:22:54.872Z,337.50
2019-04-20T12:23:54.121Z,337.50
2019-04-20T12:24:56.143Z,337.50
2019-04-20T12:25:54.390Z,337.50
2019-04-20T12:26:54.583Z,337.50
2019-04-20T12:27:57.022Z,337.50
2019-04-20T12:28:55.879Z,331.88
2019-04-20T12:29:54.053Z,331.88
2019-04-20T12:30:58.344Z,331.88
2019-04-20T12:31:59.181Z,331.88
2019-04-20T12:32:59.760Z,331.88
2019-04-20T12:33:54.868Z,326.25
2019-04-20T12:34:56.047Z,326.25
2019-04-20T12:35:54.212Z,326.25
2019-04-20T12:36:55.281Z,326.25
2019-04-20T12:37:54.698Z,337.50
2019-04-20T12:38:54.929Z,331.88
2019-04-20T12:39:55.233Z,331.88
2019-04-20T12:40:53.738Z,326.25
2019-04-20T12:41:58.383Z,326.25
2019-04-20T12:42:57.101Z,320.62
2019-04-20T12:43:56.033Z,320.62
2019-04-20T12:44:53.692Z,320.62
2019-04-20T12:45:53.873Z,320.62
2019-04-20T12:46:55.918Z,320.62
2019-04-20T12:47:53.694Z,315.00
2019-04-20T12:48:53.673Z,315.00
2019-04-20T12:49:53.812Z,315.00
2019-04-20T12:50:55.438Z,315.00
2019-04-20T12:51:58.004Z,315.00
2019-04-20T12:52:56.699Z,315.00
2019-04-20T12:53:54.665Z,315.00
2019-04-20T12:54:54.535Z,315.00
2019-04-20T12:55:54.760Z,315.00
2019-04-20T12:56:53.638Z,309.38
2019-04-20T12:57:54.499Z,315.00
2019-04-20T12:58:53.693Z,309.38
2019-04-20T12:59:54.636Z,315.00
2019-04-20T13:00:54.381Z,315.00
2019-04-20T13:01:53.607Z,309.38
2019-04-20T13:02:53.760Z,315.00
2019-04-20T13:03:55.296Z,315.00
2019-04-20T13:04:53.668Z,309.38
2019-04-20T13:05:54.287Z,303.75
2019-04-20T13:06:55.365Z,303.75
2019-04-20T13:07:58.961Z,303.75
2019-04-20T13:08:58.807Z,303.75
2019-04-20T13:09:56.918Z,303.75
2019-04-20T13:10:54.866Z,303.75
2019-04-20T13:11:59.431Z,298.12
2019-04-20T13:12:56.547Z,298.12
2019-04-20T13:13:54.537Z,298.12
2019-04-20T13:14:53.501Z,298.12
2019-04-20T13:15:56.360Z,292.50
2019-04-20T13:16:55.076Z,298.12
2019-04-20T13:17:54.520Z,298.12
2019-04-20T13:18:53.504Z,292.50
2019-04-20T13:19:53.537Z,292.50
2019-04-20T13:20:56.439Z,292.50
2019-04-20T13:21:54.802Z,292.50
2019-04-20T13:22:55.019Z,292.50
2019-04-20T13:23:53.482Z,286.88
2019-04-20T13:24:54.840Z,286.88
2019-04-20T13:25:53.445Z,286.88
2019-04-20T13:26:53.438Z,281.25
2019-04-20T13:27:54.700Z,286.88
2019-04-20T13:28:53.443Z,286.88
2019-04-20T13:29:54.543Z,286.88
2019-04-20T13:30:53.644Z,286.88
2019-04-20T13:31:56.308Z,286.88
2019-04-20T13:32:54.425Z,286.88
2019-04-20T13:33:53.418Z,281.25
2019-04-20T13:34:54.151Z,281.25
2019-04-20T13:35:54.368Z,281.25
2019-04-20T13:36:53.395Z,281.25
2019-04-20T13:37:54.137Z,281.25